weather station
Area: 3964 km2
The highest point: Čertův mlýn (1206 m.s.l.)
Total stations: 31
Stations online: 30
Stations offline: 1
Current weather
17°C

Meteorological map - weather stations in Zlínský

. The meteorological maps show weather information from WARIO weather stations

Weather stations Zlínský

 UpdatesNameStatusTemperatureHumidityWind speedWind direction
26.5.2024 16:46Valašské Meziříčí - Brňov13.3 °C88.3 %0.0 m/s SW
26.5.2024 16:46Bystřička14.2 °C91.3 %0.6 m/s N
26.5.2024 16:46Kunovice14.8 °C77.3 %2.5 m/s S
26.5.2024 16:46Rožnov pod Radhoštěm14.1 °C91.6 %0.0 m/s NW
26.5.2024 16:46Dolní Bečva13.9 °C94.3 %1.0 m/s N
16.5.2024 10:54Dolní Bečva18.2 °C52.7 %2.4 m/s SW
26.5.2024 16:46Halenkov13.4 °C88.1 %1.2 m/s N
26.5.2024 16:46Jasenná20.2 °C64.8 %3.6 m/s N
26.5.2024 16:46Kateřinice15.2 °C93.9 %0.6 m/s N
26.5.2024 16:46Bystřice pod Hostýnem12.9 °C100.0 %0.0 m/s W
26.5.2024 16:46Kroměříž - Vážany24.9 °C61.7 %0.0 m/s E
26.5.2024 16:46Kroměříž26.1 °C56.3 %1.2 m/s NE
26.5.2024 16:46Kroměříž25.1 °C50.5 %1.4 m/s SE
26.5.2024 16:46Liptál15.5 °C79.1 %1.6 m/s SE
26.5.2024 16:46Pohořelice22.1 °C52.1 %2.2 m/s NW
26.5.2024 16:46Holešov19.9 °C84.4 %6.3 m/s NE
26.5.2024 16:46Vsetín14.6 °C91.0 %1.1 m/s S
26.5.2024 16:46Huslenky13.4 °C93.7 %0.0 m/s E
26.5.2024 16:46Zlín21.5 °C52.7 %0.0 m/s N
26.5.2024 16:46Bystříce pod Hostýnem15.4 °C74.8 %3.3 m/s NE
26.5.2024 16:46Vigantice13.3 °C100.0 %1.2 m/s E
26.5.2024 16:46Zlín21.3 °C57.9 %2.7 m/s E
26.5.2024 16:47Pržno14.3 °C93.4 %0.6 m/s NE
26.5.2024 16:46Rožnov pod Radhoštěm13.6 °C91.9 %0.0 m/s SW
26.5.2024 16:45Holešov - letiště19.9 °C59.8 %4.9 m/s SE
26.5.2024 16:46Růžďka13.2 °C95.6 %0.7 m/s NW
26.5.2024 16:47Hutisko-Solanec12.1 °C100.0 %0.6 m/s NW
26.5.2024 16:46Svatý Hostýn13.7 °C81.3 %2.2 m/s W
26.5.2024 16:46Valašská Bystřice13.3 °C87.6 %0.9 m/s SE
26.5.2024 16:46Zlín20.1 °C67.9 %0.9 m/s W
26.5.2024 16:46Zubří14.0 °C93.0 %0.8 m/s N
Email notifications
Enter your email address to subscribe to notifications about news at warioweather.com. Your email address will not be used for any purpose other than sending these emails and will not be provided to any third party. The subscription can be ended at any time.
All data are only indicative. The portal administrator has no responsibility for potentially incorrect data and related consequences. Publishing or further sharing of content from www.warioweather.com is only allowed with written consent from WANET s.r.o.